createdAt,value
2022-10-09T00:00:09.330Z,11.30
2022-10-09T00:03:14.122Z,10.87
2022-10-09T00:06:42.147Z,11.03
2022-10-09T00:09:43.814Z,10.87
2022-10-09T00:12:45.611Z,11.93
2022-10-09T00:15:47.527Z,10.10
2022-10-09T00:18:49.254Z,9.83
2022-10-09T00:21:50.841Z,9.70
2022-10-09T00:24:52.397Z,10.03
2022-10-09T00:27:53.958Z,12.90
2022-10-09T00:30:55.709Z,9.83
2022-10-09T00:33:57.365Z,11.67
2022-10-09T00:36:58.909Z,11.23
2022-10-09T00:40:00.734Z,8.87
2022-10-09T00:43:02.491Z,9.17
2022-10-09T00:46:04.350Z,9.77
2022-10-09T00:49:12.159Z,9.97
2022-10-09T00:52:13.880Z,11.97
2022-10-09T00:55:15.696Z,12.00
2022-10-09T00:58:17.333Z,11.40
2022-10-09T01:01:18.954Z,10.17
2022-10-09T01:04:20.627Z,11.20
2022-10-09T01:07:31.656Z,9.47
2022-10-09T01:10:49.406Z,12.50
2022-10-09T01:14:09.641Z,10.80
2022-10-09T01:17:17.245Z,9.43
2022-10-09T01:20:19.089Z,12.07
2022-10-09T01:23:23.902Z,8.77
2022-10-09T01:26:44.005Z,11.83
2022-10-09T01:30:05.791Z,9.33
2022-10-09T01:33:07.874Z,9.53
2022-10-09T01:36:09.989Z,10.30
2022-10-09T01:39:13.960Z,9.47
2022-10-09T01:42:15.840Z,9.67
2022-10-09T01:45:17.423Z,13.00
2022-10-09T01:48:23.367Z,9.90
2022-10-09T01:51:27.665Z,11.93
2022-10-09T01:54:41.461Z,11.23
2022-10-09T01:57:51.174Z,9.03
2022-10-09T02:01:04.826Z,10.80
2022-10-09T02:04:08.383Z,11.63
2022-10-09T02:07:10.178Z,9.83
2022-10-09T02:10:11.817Z,10.40
2022-10-09T02:13:17.938Z,11.07
2022-10-09T02:16:24.681Z,13.97
2022-10-09T02:19:30.283Z,11.03
2022-10-09T02:22:32.416Z,11.13
2022-10-09T02:25:34.705Z,11.97
2022-10-09T02:28:36.797Z,11.10
2022-10-09T02:31:39.073Z,16.50
2022-10-09T02:34:40.746Z,10.93
2022-10-09T02:37:42.278Z,11.73
2022-10-09T02:40:43.891Z,12.67
2022-10-09T02:43:45.513Z,9.90
2022-10-09T02:46:47.130Z,11.73
2022-10-09T02:49:48.806Z,9.77
2022-10-09T02:52:50.537Z,11.30
2022-10-09T02:55:52.267Z,12.13
2022-10-09T02:58:54.225Z,10.13
2022-10-09T03:01:55.951Z,14.10
2022-10-09T03:04:57.582Z,10.57
2022-10-09T03:07:59.175Z,9.80
2022-10-09T03:11:00.809Z,11.63
2022-10-09T03:14:02.408Z,10.27
2022-10-09T03:17:04.047Z,11.23
2022-10-09T03:20:06.489Z,9.70
2022-10-09T03:23:08.065Z,11.07
2022-10-09T03:26:13.768Z,11.50
2022-10-09T03:29:15.368Z,10.87
2022-10-09T03:32:16.995Z,11.40
2022-10-09T03:35:18.564Z,11.63
2022-10-09T03:38:20.154Z,10.53
2022-10-09T03:41:21.752Z,11.53
2022-10-09T03:44:23.298Z,12.20
2022-10-09T03:47:24.867Z,11.70
2022-10-09T03:50:26.472Z,13.03
2022-10-09T03:53:28.213Z,12.47
2022-10-09T03:56:29.923Z,11.67
2022-10-09T03:59:31.503Z,15.37
2022-10-09T04:02:33.892Z,14.30
2022-10-09T04:05:36.073Z,15.00
2022-10-09T04:08:37.637Z,13.10
2022-10-09T04:11:39.373Z,12.80
2022-10-09T04:14:41.092Z,12.10
2022-10-09T04:17:42.759Z,16.60
2022-10-09T04:20:44.944Z,12.70
2022-10-09T04:23:46.536Z,13.20
2022-10-09T04:26:48.104Z,14.60
2022-10-09T04:29:49.708Z,13.27
2022-10-09T04:32:51.657Z,13.43
2022-10-09T04:35:54.136Z,13.53
2022-10-09T04:38:55.794Z,17.47
2022-10-09T04:41:57.430Z,15.40
2022-10-09T04:44:59.175Z,16.37
2022-10-09T04:48:00.801Z,16.70
2022-10-09T04:51:04.098Z,16.07
2022-10-09T04:54:05.711Z,13.50
2022-10-09T04:57:07.341Z,15.13
2022-10-09T05:00:09.341Z,11.97
2022-10-09T05:03:11.318Z,16.07
2022-10-09T05:06:13.792Z,16.47
2022-10-09T05:09:15.351Z,18.37
2022-10-09T05:12:16.984Z,16.10
2022-10-09T05:15:19.679Z,16.77
2022-10-09T05:18:21.558Z,17.23
2022-10-09T05:21:27.007Z,18.50
2022-10-09T05:24:34.261Z,15.13
2022-10-09T05:27:36.245Z,16.93
2022-10-09T05:30:40.650Z,15.13
2022-10-09T05:33:42.206Z,16.07
2022-10-09T05:36:43.858Z,15.37
2022-10-09T05:39:45.491Z,15.07
2022-10-09T05:42:49.325Z,12.10
2022-10-09T05:45:51.294Z,11.53
2022-10-09T05:48:53.852Z,13.23
2022-10-09T05:51:56.087Z,12.33
2022-10-09T05:54:57.675Z,12.13
2022-10-09T05:57:59.239Z,12.30
2022-10-09T06:01:00.974Z,10.00
2022-10-09T06:04:03.367Z,12.80
2022-10-09T06:07:05.184Z,11.37
2022-10-09T06:10:06.982Z,11.00
2022-10-09T06:13:08.539Z,13.07
2022-10-09T06:16:11.809Z,10.53
2022-10-09T06:19:15.054Z,12.13
2022-10-09T06:22:16.733Z,10.10
2022-10-09T06:25:18.374Z,12.57
2022-10-09T06:28:20.023Z,10.03
2022-10-09T06:31:23.343Z,12.63
2022-10-09T06:34:25.088Z,9.47
2022-10-09T06:37:26.624Z,10.93
2022-10-09T06:40:28.231Z,9.90
2022-10-09T06:43:31.065Z,9.67
2022-10-09T06:46:34.402Z,11.03
2022-10-09T06:49:36.080Z,9.90
2022-10-09T06:52:37.679Z,12.20
2022-10-09T06:55:39.269Z,10.73
2022-10-09T06:58:40.904Z,9.10
2022-10-09T07:01:42.722Z,8.50
2022-10-09T07:04:44.354Z,10.13
2022-10-09T07:07:46.015Z,8.70
2022-10-09T07:10:47.576Z,7.53
2022-10-09T07:13:50.588Z,7.87
2022-10-09T07:16:52.405Z,7.00
2022-10-09T07:19:53.985Z,9.23
2022-10-09T07:22:55.554Z,10.03
2022-10-09T07:25:57.580Z,8.43
2022-10-09T07:28:59.267Z,12.07
2022-10-09T07:32:00.814Z,8.27
2022-10-09T07:35:02.364Z,10.85
2022-10-09T07:38:04.389Z,6.80
2022-10-09T07:41:07.337Z,7.95
2022-10-09T07:44:10.253Z,7.65
2022-10-09T07:47:11.851Z,5.55
2022-10-09T07:50:13.532Z,9.25
2022-10-09T07:53:15.094Z,7.85
2022-10-09T07:56:19.443Z,6.40
2022-10-09T07:59:21.042Z,7.78
2022-10-09T08:02:22.626Z,5.55
2022-10-09T08:05:24.300Z,6.90
2022-10-09T08:08:26.072Z,4.00
2022-10-09T08:11:28.814Z,7.10
2022-10-09T08:14:30.408Z,5.45
2022-10-09T08:17:32.012Z,11.80
2022-10-09T08:20:33.540Z,4.53
2022-10-09T08:23:35.407Z,6.88
2022-10-09T08:26:36.992Z,7.18
2022-10-09T08:29:40.389Z,7.72
2022-10-09T08:32:42.089Z,4.30
2022-10-09T08:35:43.611Z,4.65
2022-10-09T08:38:47.938Z,4.80
2022-10-09T08:41:51.932Z,11.45
2022-10-09T08:44:53.529Z,5.57
2022-10-09T08:47:57.635Z,6.72
2022-10-09T08:50:59.790Z,5.20
2022-10-09T08:54:11.596Z,5.10
2022-10-09T08:57:14.549Z,6.15
2022-10-09T09:00:17.258Z,8.57
2022-10-09T09:03:28.703Z,7.65
2022-10-09T09:06:42.168Z,10.32
2022-10-09T09:09:46.815Z,9.85
2022-10-09T09:12:50.835Z,9.10
2022-10-09T09:15:59.258Z,6.38
2022-10-09T09:19:17.371Z,6.70
2022-10-09T09:22:19.219Z,7.40
2022-10-09T09:25:23.566Z,7.00
2022-10-09T09:28:34.017Z,9.07
2022-10-09T09:31:37.273Z,7.30
2022-10-09T09:34:40.662Z,10.10
2022-10-09T09:37:42.259Z,6.35
2022-10-09T09:40:47.321Z,18.00
2022-10-09T09:43:49.161Z,9.40
2022-10-09T09:46:50.935Z,6.43
2022-10-09T09:49:56.375Z,7.53
2022-10-09T09:53:01.025Z,7.70
2022-10-09T09:56:02.660Z,5.93
2022-10-09T09:59:04.753Z,5.97
2022-10-09T10:02:06.354Z,7.10
2022-10-09T10:05:20.756Z,6.97
2022-10-09T10:08:25.532Z,5.57
2022-10-09T10:11:27.240Z,8.00
2022-10-09T10:14:29.367Z,6.50
2022-10-09T10:17:32.424Z,11.10
2022-10-09T10:20:42.209Z,6.13
2022-10-09T10:23:51.127Z,7.23
2022-10-09T10:26:55.912Z,5.30
2022-10-09T10:30:02.192Z,5.27
2022-10-09T10:33:17.619Z,6.70
2022-10-09T10:36:19.714Z,6.13
2022-10-09T10:39:26.954Z,5.00
2022-10-09T10:42:35.794Z,9.00
2022-10-09T10:45:49.694Z,8.30
2022-10-09T10:48:52.209Z,6.57
2022-10-09T10:52:17.930Z,5.10
2022-10-09T10:55:19.520Z,5.97
2022-10-09T10:58:27.447Z,5.63
2022-10-09T11:01:44.440Z,5.73
2022-10-09T11:04:46.000Z,6.20
2022-10-09T11:07:50.394Z,5.50
2022-10-09T11:11:10.716Z,7.30
2022-10-09T11:14:30.847Z,6.23
2022-10-09T11:17:35.273Z,5.60
2022-10-09T11:20:55.528Z,6.50
2022-10-09T11:23:59.948Z,4.93
2022-10-09T11:27:09.096Z,8.00
2022-10-09T11:30:11.775Z,5.60
2022-10-09T11:33:36.881Z,5.20
2022-10-09T11:36:42.319Z,7.23
2022-10-09T11:39:44.258Z,8.03
2022-10-09T11:42:47.998Z,5.90
2022-10-09T11:46:09.898Z,5.47
2022-10-09T11:49:34.606Z,5.53
2022-10-09T11:52:42.567Z,5.17
2022-10-09T11:55:44.530Z,6.10
2022-10-09T11:59:06.484Z,7.63
2022-10-09T12:02:27.912Z,4.10
2022-10-09T12:05:29.453Z,4.80
2022-10-09T12:08:31.140Z,4.47
2022-10-09T12:11:33.263Z,4.20
2022-10-09T12:14:37.188Z,7.30
2022-10-09T12:17:47.630Z,5.70
2022-10-09T12:20:53.335Z,5.67
2022-10-09T12:23:55.187Z,5.90
2022-10-09T12:26:59.748Z,5.57
2022-10-09T12:30:14.230Z,5.80
2022-10-09T12:33:22.730Z,7.60
2022-10-09T12:36:25.624Z,5.07
2022-10-09T12:39:27.158Z,6.90
2022-10-09T12:42:28.713Z,4.50
2022-10-09T12:45:31.252Z,5.83
2022-10-09T12:48:36.906Z,8.07
2022-10-09T12:51:39.846Z,7.80
2022-10-09T12:54:42.528Z,5.67
2022-10-09T12:57:44.394Z,6.37
2022-10-09T13:00:50.247Z,7.27
2022-10-09T13:03:54.890Z,4.80
2022-10-09T13:06:57.597Z,8.00
2022-10-09T13:10:04.614Z,6.70
2022-10-09T13:13:06.164Z,4.83
2022-10-09T13:16:09.687Z,6.00
2022-10-09T13:19:27.929Z,9.67
2022-10-09T13:22:33.617Z,9.83
2022-10-09T13:25:41.715Z,8.27
2022-10-09T13:28:43.861Z,8.13
2022-10-09T13:31:45.609Z,7.73
2022-10-09T13:34:47.475Z,7.30
2022-10-09T13:37:49.403Z,6.27
2022-10-09T13:40:51.274Z,7.70
2022-10-09T13:43:53.140Z,8.47
2022-10-09T13:46:54.799Z,8.00
2022-10-09T13:49:59.611Z,7.07
2022-10-09T13:53:01.382Z,8.80
2022-10-09T13:56:03.860Z,14.77
2022-10-09T13:59:05.430Z,5.90
2022-10-09T14:02:07.312Z,4.97
2022-10-09T14:05:08.967Z,4.37
2022-10-09T14:08:11.409Z,4.47
2022-10-09T14:11:13.175Z,8.33
2022-10-09T14:14:14.827Z,7.37
2022-10-09T14:17:16.663Z,5.20
2022-10-09T14:20:18.380Z,4.77
2022-10-09T14:23:19.968Z,5.57
2022-10-09T14:26:21.633Z,8.20
2022-10-09T14:29:23.368Z,20.07
2022-10-09T14:32:25.041Z,10.50
2022-10-09T14:35:26.618Z,6.37
2022-10-09T14:38:28.244Z,6.27
2022-10-09T14:41:33.196Z,5.87
2022-10-09T14:44:37.162Z,9.67
2022-10-09T14:47:38.727Z,5.00
2022-10-09T14:50:40.443Z,6.57
2022-10-09T14:53:42.030Z,8.53
2022-10-09T14:56:43.710Z,8.47
2022-10-09T14:59:45.307Z,6.80
2022-10-09T15:02:46.880Z,7.83
2022-10-09T15:05:48.458Z,6.00
2022-10-09T15:08:51.090Z,7.40
2022-10-09T15:11:52.678Z,9.83
2022-10-09T15:14:54.400Z,11.33
2022-10-09T15:17:55.995Z,9.07
2022-10-09T15:21:00.240Z,8.70
2022-10-09T15:24:02.349Z,10.87
2022-10-09T15:27:04.165Z,10.83
2022-10-09T15:30:07.302Z,10.37
2022-10-09T15:33:08.942Z,14.87
2022-10-09T15:36:10.525Z,17.33
2022-10-09T15:39:13.100Z,14.17
2022-10-09T15:42:14.720Z,16.83
2022-10-09T15:45:16.347Z,11.40
2022-10-09T15:48:19.163Z,11.60
2022-10-09T15:51:21.354Z,9.80
2022-10-09T15:54:23.224Z,15.67
2022-10-09T15:57:24.862Z,15.07
2022-10-09T16:00:26.430Z,13.57
2022-10-09T16:03:29.094Z,10.60
2022-10-09T16:06:30.644Z,14.53
2022-10-09T16:09:34.184Z,16.10
2022-10-09T16:12:35.735Z,21.17
2022-10-09T16:15:43.579Z,17.13
2022-10-09T16:18:45.382Z,18.23
2022-10-09T16:21:48.393Z,16.97
2022-10-09T16:24:50.004Z,17.50
2022-10-09T16:27:51.602Z,22.63
2022-10-09T16:30:54.596Z,22.73
2022-10-09T16:33:56.483Z,20.37
2022-10-09T16:37:01.958Z,16.83
2022-10-09T16:40:03.830Z,18.73
2022-10-09T16:43:05.521Z,20.80
2022-10-09T16:46:10.142Z,22.70
2022-10-09T16:49:19.998Z,23.47
2022-10-09T16:52:24.382Z,23.57
2022-10-09T16:55:27.441Z,25.77
2022-10-09T16:58:29.044Z,27.20
2022-10-09T17:01:31.079Z,30.70
2022-10-09T17:04:32.759Z,28.83
2022-10-09T17:07:34.372Z,27.40
2022-10-09T17:10:41.029Z,22.20
2022-10-09T17:13:43.364Z,20.97
2022-10-09T17:16:45.070Z,19.77
2022-10-09T17:19:46.739Z,20.77
2022-10-09T17:22:48.878Z,18.10
2022-10-09T17:25:50.893Z,19.10
2022-10-09T17:28:53.257Z,17.83
2022-10-09T17:31:54.864Z,17.57
2022-10-09T17:34:56.516Z,21.83
2022-10-09T17:37:58.120Z,15.80
2022-10-09T17:40:59.823Z,14.97
2022-10-09T17:44:01.516Z,16.37
2022-10-09T17:47:03.469Z,12.17
2022-10-09T17:50:05.422Z,12.00
2022-10-09T17:53:07.250Z,15.93
2022-10-09T17:56:09.223Z,11.60
2022-10-09T17:59:11.102Z,10.93
2022-10-09T18:02:12.785Z,10.70
2022-10-09T18:05:14.402Z,10.83
2022-10-09T18:08:17.101Z,12.77
2022-10-09T18:11:19.310Z,10.80
2022-10-09T18:14:20.953Z,11.97
2022-10-09T18:17:22.704Z,11.87
2022-10-09T18:20:24.396Z,11.87
2022-10-09T18:23:26.012Z,14.80
2022-10-09T18:26:27.762Z,11.90
2022-10-09T18:29:29.389Z,13.73
2022-10-09T18:32:31.063Z,18.07
2022-10-09T18:35:35.380Z,13.03
2022-10-09T18:38:37.110Z,13.77
2022-10-09T18:41:38.891Z,12.53
2022-10-09T18:44:42.927Z,13.17
2022-10-09T18:47:44.947Z,13.00
2022-10-09T18:50:46.730Z,10.40
2022-10-09T18:53:50.925Z,12.73
2022-10-09T18:56:52.857Z,12.13
2022-10-09T18:59:55.540Z,9.87
2022-10-09T19:02:57.160Z,11.20
2022-10-09T19:05:58.794Z,12.70
2022-10-09T19:09:03.045Z,13.70
2022-10-09T19:12:04.733Z,9.97
2022-10-09T19:15:11.703Z,11.13
2022-10-09T19:18:14.368Z,13.33
2022-10-09T19:21:16.040Z,11.30
2022-10-09T19:24:17.633Z,11.20
2022-10-09T19:27:21.578Z,13.00
2022-10-09T19:30:25.059Z,11.33
2022-10-09T19:33:26.639Z,15.03
2022-10-09T19:36:28.448Z,11.43
2022-10-09T19:39:30.066Z,14.20
2022-10-09T19:42:31.669Z,12.47
2022-10-09T19:45:33.246Z,11.43
2022-10-09T19:48:35.298Z,12.67
2022-10-09T19:51:36.913Z,16.37
2022-10-09T19:54:40.072Z,14.87
2022-10-09T19:57:41.701Z,13.33
2022-10-09T20:00:43.698Z,11.70
2022-10-09T20:03:45.701Z,11.97
2022-10-09T20:06:48.420Z,12.10
2022-10-09T20:09:50.064Z,13.77
2022-10-09T20:12:51.933Z,12.60
2022-10-09T20:15:53.968Z,11.37
2022-10-09T20:18:56.247Z,13.40
2022-10-09T20:21:58.107Z,12.37
2022-10-09T20:24:59.653Z,13.50
2022-10-09T20:28:01.198Z,10.53
2022-10-09T20:31:07.918Z,11.20
2022-10-09T20:34:09.558Z,11.50
2022-10-09T20:37:11.201Z,13.13
2022-10-09T20:40:12.936Z,10.27
2022-10-09T20:43:14.588Z,12.53
2022-10-09T20:46:16.218Z,10.47
2022-10-09T20:49:18.226Z,11.47
2022-10-09T20:52:19.907Z,14.27
2022-10-09T20:55:21.475Z,12.20
2022-10-09T20:58:23.042Z,11.37
2022-10-09T21:01:24.972Z,11.17
2022-10-09T21:04:26.592Z,10.33
2022-10-09T21:07:28.167Z,11.20
2022-10-09T21:10:29.714Z,13.73
2022-10-09T21:13:31.376Z,11.77
2022-10-09T21:16:33.109Z,12.77
2022-10-09T21:19:34.713Z,12.50
2022-10-09T21:22:36.275Z,10.47
2022-10-09T21:25:38.386Z,10.90
2022-10-09T21:28:40.515Z,11.23
2022-10-09T21:31:42.231Z,9.83
2022-10-09T21:34:43.824Z,13.50
2022-10-09T21:37:45.432Z,14.20
2022-10-09T21:40:47.728Z,11.53
2022-10-09T21:43:49.286Z,13.70
2022-10-09T21:46:50.929Z,11.13
2022-10-09T21:49:52.603Z,12.37
2022-10-09T21:52:54.193Z,12.03
2022-10-09T21:55:55.758Z,21.23
2022-10-09T21:58:57.430Z,15.63
2022-10-09T22:01:58.997Z,18.97
2022-10-09T22:05:00.645Z,19.83
2022-10-09T22:08:02.185Z,20.33
2022-10-09T22:11:07.451Z,17.07
2022-10-09T22:14:09.011Z,16.40
2022-10-09T22:17:10.673Z,12.20
2022-10-09T22:20:13.122Z,26.37
2022-10-09T22:23:15.019Z,23.93
2022-10-09T22:26:18.037Z,11.80
2022-10-09T22:29:19.611Z,13.77
2022-10-09T22:32:21.184Z,15.80
2022-10-09T22:35:22.968Z,12.33
2022-10-09T22:38:24.517Z,12.60
2022-10-09T22:41:26.891Z,12.67
2022-10-09T22:44:28.476Z,16.23
2022-10-09T22:47:30.104Z,13.67
2022-10-09T22:50:31.711Z,11.47
2022-10-09T22:53:33.716Z,13.83
2022-10-09T22:56:39.161Z,12.03
2022-10-09T22:59:40.776Z,12.73
2022-10-09T23:02:42.310Z,13.77
2022-10-09T23:05:43.934Z,12.37
2022-10-09T23:08:46.599Z,16.97
2022-10-09T23:11:48.200Z,12.90
2022-10-09T23:14:49.820Z,11.80
2022-10-09T23:17:51.381Z,13.77
2022-10-09T23:20:52.957Z,11.23
2022-10-09T23:23:54.590Z,15.37
2022-10-09T23:26:56.077Z,18.13
2022-10-09T23:29:57.729Z,16.10
2022-10-09T23:32:59.332Z,13.13
2022-10-09T23:36:03.822Z,12.47
2022-10-09T23:39:06.146Z,17.63
2022-10-09T23:42:07.763Z,21.33
2022-10-09T23:45:09.734Z,19.23
2022-10-09T23:48:11.338Z,20.67
2022-10-09T23:51:14.124Z,16.13
2022-10-09T23:54:15.763Z,11.07
2022-10-09T23:57:17.349Z,18.40
